Kamas, UT (84036)

11:25 PM MDT on March 29, 2017 (GMT -0600)
Beaver Creek at Kamas | | Change Station

Elev 6540 ft 40.64 °N, 111.26 °W | Updated 1 minute ago

Overcast
Overcast
37.2 °F
Feels Like 31 °F
N
7.6
Wind Variable Wind from ESE
Gusts 11.0 mph

Today
High -- | Low -- °F
--% Chance of Precip.
Yesterday
High -- | Low -- °F
Precip. -- in
Pressure 30.07 in
Visibility 10.0 miles
Clouds Overcast 9500 ft
Windchill 31 °F
Dew Point 28 °F
Humidity 69%
Rainfall 0.00 in
Snow Depth Not available.
7:13 AM 7:47 PM
Waxing Crescent, 6% visible
METAR K36U 300512Z AUTO 00000KT 10SM OVC095 07/01 A3007 RMK AO2
Pressure 30.07 in
Visibility 10.0 miles
Clouds Overcast 9500 ft
Windchill 31 °F
Dew Point 28 °F
Humidity 69%
Rainfall 0.00 in
Snow Depth Not available.
7:13 AM 7:47 PM
Waxing Crescent, 6% visible
METAR K36U 300512Z AUTO 00000KT 10SM OVC095 07/01 A3007 RMK AO2

Get Severe Weather Alerts

Thanks for signing up!

Be on the lookout for a verification email in your inbox.

You'll start receiving the daily forecast at 8 AM.

×

10-Day Weather Forecast

Almanac

Astronomy

Mar. 29, 2017 Rise Set
Actual Time
Civil Twilight
Nautical Twilight
Astronomical Twilight
Moon
Length of Visible Light
Length of Day
Tomorrow will be .
, % of the Moon is Illuminated

Today's Extremes

State Highs State Lows

Community

WunderPhotos

Upload Photos

1,962,540 photos uploaded!

WunderBlog® & News

Nearby

Air Quality

  Air Quality AQ Index Pollutant
Not available.

Snow Depth

Station Depth Elevation

Earthquake Activity

City Distance Mag. Time & Date
Minimum magnitude displayed is 2.5.

Earthquake Activity

City Distance Mag. Time & Date
Minimum magnitude displayed is 2.5.

Coastal Water Temperatures

Place Temperature

Stations

Nearby Weather Stations

Station Location Temp. Windchill Dew Point Humidity Wind Precip. Elev Updated Type
                   

Watches & Warnings

There are currently no watches in effect.